createdAt,value
2024-03-05T00:01:00.062Z,1011.94
2024-03-05T00:01:58.826Z,1011.96
2024-03-05T00:03:01.072Z,1011.99
2024-03-05T00:03:59.849Z,1012
2024-03-05T00:05:01.143Z,1012
2024-03-05T00:05:59.838Z,1011.97
2024-03-05T00:07:00.978Z,1012
2024-03-05T00:07:59.689Z,1011.96
2024-03-05T00:09:00.517Z,1011.98
2024-03-05T00:09:59.567Z,1011.97
2024-03-05T00:11:00.362Z,1012.03
2024-03-05T00:11:59.392Z,1011.97
2024-03-05T00:13:00.271Z,1011.97
2024-03-05T00:13:59.008Z,1011.99
2024-03-05T00:14:59.693Z,1011.96
2024-03-05T00:16:01.061Z,1012.02
2024-03-05T00:16:59.855Z,1012.03
2024-03-05T00:18:01.122Z,1012.04
2024-03-05T00:18:59.829Z,1012.03
2024-03-05T00:20:01.150Z,1012.02
2024-03-05T00:21:00.089Z,1012.05
2024-03-05T00:21:58.838Z,1012.06
2024-03-05T00:23:01.394Z,1012.02
2024-03-05T00:24:00.167Z,1012.02
2024-03-05T00:24:58.846Z,1012.03
2024-03-05T00:26:01.068Z,1012.05
2024-03-05T00:26:59.871Z,1012.02
2024-03-05T00:28:01.022Z,1012.07
2024-03-05T00:28:59.882Z,1012.08
2024-03-05T00:30:00.963Z,1012.03
2024-03-05T00:30:59.613Z,1012.07
2024-03-05T00:32:00.306Z,1012.02
2024-03-05T00:32:58.999Z,1012.02
2024-03-05T00:33:59.705Z,1011.99
2024-03-05T00:35:01.195Z,1012.01
2024-03-05T00:35:59.882Z,1012.02
2024-03-05T00:37:01.630Z,1011.97
2024-03-05T00:38:00.306Z,1011.95
2024-03-05T00:38:59.027Z,1012.06
2024-03-05T00:39:59.763Z,1012.08
2024-03-05T00:41:00.996Z,1012.07
2024-03-05T00:41:59.662Z,1012.04
2024-03-05T00:43:00.944Z,1012.06
2024-03-05T00:43:59.652Z,1012.05
2024-03-05T00:45:01.019Z,1012.04
2024-03-05T00:45:59.889Z,1012.05
2024-03-05T00:47:01.097Z,1012.06
2024-03-05T00:47:59.971Z,1012.12
2024-03-05T00:48:58.684Z,1012.05
2024-03-05T00:50:01.559Z,1012.11
2024-03-05T00:51:00.970Z,1012.1
2024-03-05T00:51:59.629Z,1012.12
2024-03-05T00:53:00.377Z,1012.11
2024-03-05T00:53:59.178Z,1012.07
2024-03-05T00:54:59.893Z,1012.08
2024-03-05T00:56:00.789Z,1012.11
2024-03-05T00:56:59.551Z,1012.14
2024-03-05T00:58:00.271Z,1012.11
2024-03-05T00:58:58.975Z,1012.11
2024-03-05T00:59:59.667Z,1012.11
2024-03-05T01:01:04.046Z,1012.12
2024-03-05T01:02:00.236Z,1012.15
2024-03-05T01:02:58.987Z,1012.19
2024-03-05T01:03:59.646Z,1012.16
2024-03-05T01:05:00.425Z,1012.19
2024-03-05T01:06:06.773Z,1012.14
2024-03-05T01:07:00.130Z,1012.11
2024-03-05T01:07:58.885Z,1012.1
2024-03-05T01:08:59.734Z,1012.18
2024-03-05T01:10:01.060Z,1012.19
2024-03-05T01:11:10.037Z,1012.19
2024-03-05T01:11:59.773Z,1012.22
2024-03-05T01:13:01.087Z,1012.25
2024-03-05T01:13:59.779Z,1012.21
2024-03-05T01:15:01.012Z,1012.22
2024-03-05T01:16:12.803Z,1012.22
2024-03-05T01:16:59.713Z,1012.18
2024-03-05T01:18:01.400Z,1012.17
2024-03-05T01:19:00.115Z,1012.15
2024-03-05T01:19:59.277Z,1012.2
2024-03-05T01:21:14.882Z,1012.2
2024-03-05T01:21:59.759Z,1012.22
2024-03-05T01:23:01.512Z,1012.17
2024-03-05T01:24:00.336Z,1012.15
2024-03-05T01:24:59.029Z,1012.21
2024-03-05T01:25:59.764Z,1012.17
2024-03-05T01:27:00.983Z,1012.19
2024-03-05T01:27:59.950Z,1012.19
2024-03-05T01:28:58.720Z,1012.16
2024-03-05T01:30:01.512Z,1012.15
2024-03-05T01:31:00.846Z,1012.13
2024-03-05T01:31:59.825Z,1012.15
2024-03-05T01:33:01.003Z,1012.14
2024-03-05T01:33:59.781Z,1012.17
2024-03-05T01:35:01.645Z,1012.17
2024-03-05T01:36:00.431Z,1012.16
2024-03-05T01:36:59.188Z,1012.16
2024-03-05T01:37:59.979Z,1012.14
2024-03-05T01:38:58.704Z,1012.18
2024-03-05T01:40:00.961Z,1012.13
2024-03-05T01:40:59.780Z,1012.14
2024-03-05T01:42:01.020Z,1012.14
2024-03-05T01:42:59.685Z,1012.14
2024-03-05T01:44:00.530Z,1012.15
2024-03-05T01:44:59.245Z,1012.2
2024-03-05T01:46:00.016Z,1012.22
2024-03-05T01:46:58.764Z,1012.19
2024-03-05T01:48:01.023Z,1012.25
2024-03-05T01:48:59.779Z,1012.21
2024-03-05T01:50:01.080Z,1012.18
2024-03-05T01:50:59.835Z,1012.18
2024-03-05T01:52:01.051Z,1012.22
2024-03-05T01:52:59.934Z,1012.25
2024-03-05T01:53:58.682Z,1012.25
2024-03-05T01:55:00.535Z,1012.25
2024-03-05T01:55:59.301Z,1012.29
2024-03-05T01:57:00.017Z,1012.27
2024-03-05T01:57:58.700Z,1012.26
2024-03-05T01:59:01.968Z,1012.31
2024-03-05T02:00:01.001Z,1012.35
2024-03-05T02:01:00.017Z,1012.37
2024-03-05T02:01:58.768Z,1012.39
2024-03-05T02:03:01.441Z,1012.43
2024-03-05T02:04:00.340Z,1012.41
2024-03-05T02:04:59.086Z,1012.39
2024-03-05T02:05:59.800Z,1012.38
2024-03-05T02:07:01.039Z,1012.44
2024-03-05T02:07:59.754Z,1012.41
2024-03-05T02:09:00.457Z,1012.43
2024-03-05T02:09:59.096Z,1012.46
2024-03-05T02:10:59.941Z,1012.46
2024-03-05T02:11:59.899Z,1012.45
2024-03-05T02:12:59.761Z,1012.44
2024-03-05T02:14:00.511Z,1012.43
2024-03-05T02:14:59.231Z,1012.46
2024-03-05T02:15:59.919Z,1012.45
2024-03-05T02:17:01.009Z,1012.48
2024-03-05T02:18:00.038Z,1012.48
2024-03-05T02:18:58.751Z,1012.48
2024-03-05T02:20:01.533Z,1012.44
2024-03-05T02:21:00.396Z,1012.48
2024-03-05T02:21:59.098Z,1012.48
2024-03-05T02:22:59.836Z,1012.45
2024-03-05T02:24:00.557Z,1012.51
2024-03-05T02:25:04.693Z,1012.49
2024-03-05T02:25:59.954Z,1012.5
2024-03-05T02:26:58.665Z,1012.51
2024-03-05T02:28:00.448Z,1012.5
2024-03-05T02:28:59.171Z,1012.53
2024-03-05T02:30:06.325Z,1012.51
2024-03-05T02:30:59.947Z,1012.49
2024-03-05T02:31:58.683Z,1012.5
2024-03-05T02:33:01.024Z,1012.51
2024-03-05T02:33:59.760Z,1012.47
2024-03-05T02:35:10.411Z,1012.51
2024-03-05T02:36:01.040Z,1012.53
2024-03-05T02:36:59.798Z,1012.56
2024-03-05T02:38:01.401Z,1012.51
2024-03-05T02:39:00.163Z,1012.57
2024-03-05T02:40:12.054Z,1012.54
2024-03-05T02:41:00.011Z,1012.56
2024-03-05T02:41:58.808Z,1012.52
2024-03-05T02:43:01.027Z,1012.56
2024-03-05T02:43:59.786Z,1012.55
2024-03-05T02:45:16.160Z,1012.5
2024-03-05T02:46:00.205Z,1012.51
2024-03-05T02:46:58.974Z,1012.54
2024-03-05T02:47:59.675Z,1012.56
2024-03-05T02:49:00.367Z,1012.52
2024-03-05T02:49:59.074Z,1012.55
2024-03-05T02:50:59.783Z,1012.52
2024-03-05T02:52:01.015Z,1012.5
2024-03-05T02:52:59.906Z,1012.47
2024-03-05T02:53:58.662Z,1012.5
2024-03-05T02:55:00.521Z,1012.52
2024-03-05T02:55:59.274Z,1012.49
2024-03-05T02:57:00.040Z,1012.55
2024-03-05T02:57:59.014Z,1012.55
2024-03-05T02:58:59.728Z,1012.49
2024-03-05T03:00:00.964Z,1012.57
2024-03-05T03:00:59.806Z,1012.58
2024-03-05T03:02:01.388Z,1012.59
2024-03-05T03:03:00.177Z,1012.61
2024-03-05T03:03:58.950Z,1012.62
2024-03-05T03:04:59.698Z,1012.62
2024-03-05T03:06:01.014Z,1012.63
2024-03-05T03:06:59.779Z,1012.62
2024-03-05T03:08:01.085Z,1012.63
2024-03-05T03:08:59.900Z,1012.62
2024-03-05T03:10:01.483Z,1012.6
2024-03-05T03:11:00.286Z,1012.61
2024-03-05T03:11:59.021Z,1012.58
2024-03-05T03:12:59.809Z,1012.59
2024-03-05T03:14:00.542Z,1012.58
2024-03-05T03:14:59.639Z,1012.68
2024-03-05T03:16:00.263Z,1012.66
2024-03-05T03:16:58.929Z,1012.65
2024-03-05T03:17:59.683Z,1012.71
2024-03-05T03:19:00.374Z,1012.73
2024-03-05T03:19:59.189Z,1012.74
2024-03-05T03:20:59.960Z,1012.7
2024-03-05T03:21:58.641Z,1012.72
2024-03-05T03:23:00.460Z,1012.76
2024-03-05T03:23:59.175Z,1012.7
2024-03-05T03:24:59.899Z,1012.69
2024-03-05T03:26:01.148Z,1012.71
2024-03-05T03:27:00.002Z,1012.68
2024-03-05T03:27:58.687Z,1012.67
2024-03-05T03:29:00.564Z,1012.7
2024-03-05T03:29:59.380Z,1012.72
2024-03-05T03:31:00.142Z,1012.66
2024-03-05T03:31:58.963Z,1012.69
2024-03-05T03:32:59.813Z,1012.7
2024-03-05T03:34:00.539Z,1012.66
2024-03-05T03:34:59.270Z,1012.59
2024-03-05T03:35:59.958Z,1012.63
2024-03-05T03:36:58.628Z,1012.59
2024-03-05T03:38:00.460Z,1012.59
2024-03-05T03:38:59.251Z,1012.62
2024-03-05T03:40:00.001Z,1012.55
2024-03-05T03:40:58.885Z,1012.51
2024-03-05T03:42:00.949Z,1012.52
2024-03-05T03:42:59.715Z,1012.49
2024-03-05T03:44:00.501Z,1012.53
2024-03-05T03:44:59.297Z,1012.51
2024-03-05T03:46:01.550Z,1012.55
2024-03-05T03:47:00.040Z,1012.57
2024-03-05T03:47:58.767Z,1012.58
2024-03-05T03:49:00.462Z,1012.58
2024-03-05T03:49:59.253Z,1012.6
2024-03-05T03:51:05.836Z,1012.61
2024-03-05T03:51:59.978Z,1012.68
2024-03-05T03:52:58.778Z,1012.76
2024-03-05T03:54:00.495Z,1012.73
2024-03-05T03:54:59.160Z,1012.77
2024-03-05T03:56:09.280Z,1012.84
2024-03-05T03:57:00.097Z,1012.82
2024-03-05T03:57:58.780Z,1012.79
2024-03-05T03:59:00.602Z,1012.84
2024-03-05T03:59:59.286Z,1012.86
2024-03-05T04:01:13.145Z,1012.89
2024-03-05T04:02:00.500Z,1012.88
2024-03-05T04:02:59.351Z,1012.87
2024-03-05T04:04:00.049Z,1012.89
2024-03-05T04:04:58.764Z,1012.95
2024-03-05T04:06:16.461Z,1012.92
2024-03-05T04:07:01.136Z,1012.95
2024-03-05T04:08:02.583Z,1012.94
2024-03-05T04:08:59.887Z,1012.95
2024-03-05T04:10:01.010Z,1012.93
2024-03-05T04:10:59.736Z,1012.96
2024-03-05T04:12:01.024Z,1012.96
2024-03-05T04:12:59.802Z,1012.97
2024-03-05T04:14:04.119Z,1012.96
2024-03-05T04:15:00.961Z,1012.96
2024-03-05T04:15:59.726Z,1012.98
2024-03-05T04:17:01.082Z,1012.98
2024-03-05T04:17:59.786Z,1012.96
2024-03-05T04:19:00.534Z,1012.95
2024-03-05T04:19:59.338Z,1012.98
2024-03-05T04:21:00.149Z,1012.9
2024-03-05T04:21:58.826Z,1012.98
2024-03-05T04:23:01.329Z,1012.97
2024-03-05T04:24:00.074Z,1012.97
2024-03-05T04:24:58.835Z,1012.98
2024-03-05T04:26:01.178Z,1012.94
2024-03-05T04:26:59.984Z,1012.96
2024-03-05T04:27:58.816Z,1012.99
2024-03-05T04:29:00.562Z,1012.94
2024-03-05T04:29:59.605Z,1012.99
2024-03-05T04:31:00.307Z,1013
2024-03-05T04:31:58.996Z,1013
2024-03-05T04:33:00.446Z,1013.02
2024-03-05T04:33:59.212Z,1013.03
2024-03-05T04:34:59.981Z,1013.01
2024-03-05T04:35:58.699Z,1013.03
2024-03-05T04:37:01.354Z,1013.07
2024-03-05T04:38:00.221Z,1013.11
2024-03-05T04:38:59.040Z,1013.07
2024-03-05T04:39:59.762Z,1013.11
2024-03-05T04:41:01.046Z,1013.12
2024-03-05T04:41:59.785Z,1013.13
2024-03-05T04:43:01.052Z,1013.14
2024-03-05T04:43:59.819Z,1013.18
2024-03-05T04:45:01.021Z,1013.19
2024-03-05T04:45:59.662Z,1013.16
2024-03-05T04:47:00.388Z,1013.22
2024-03-05T04:47:59.135Z,1013.22
2024-03-05T04:48:59.911Z,1013.19
2024-03-05T04:50:01.113Z,1013.22
2024-03-05T04:50:59.832Z,1013.26
2024-03-05T04:52:00.991Z,1013.2
2024-03-05T04:52:59.739Z,1013.23
2024-03-05T04:54:00.457Z,1013.24
2024-03-05T04:54:59.128Z,1013.25
2024-03-05T04:55:59.978Z,1013.22
2024-03-05T04:56:58.742Z,1013.22
2024-03-05T04:58:01.355Z,1013.18
2024-03-05T04:59:00.156Z,1013.27
2024-03-05T04:59:58.875Z,1013.22
2024-03-05T05:01:01.039Z,1013.26
2024-03-05T05:01:59.853Z,1013.18
2024-03-05T05:02:58.602Z,1013.29
2024-03-05T05:04:00.595Z,1013.26
2024-03-05T05:04:59.435Z,1013.27
2024-03-05T05:06:00.131Z,1013.29
2024-03-05T05:07:03.212Z,1013.29
2024-03-05T05:07:59.919Z,1013.26
2024-03-05T05:08:58.608Z,1013.23
2024-03-05T05:10:00.974Z,1013.25
2024-03-05T05:10:59.805Z,1013.24
2024-03-05T05:12:07.521Z,1013.23
2024-03-05T05:13:01.000Z,1013.25
2024-03-05T05:13:59.783Z,1013.21
2024-03-05T05:15:06.080Z,1013.19
2024-03-05T05:16:01.039Z,1013.19
2024-03-05T05:17:10.263Z,1013.2
2024-03-05T05:18:01.100Z,1013.16
2024-03-05T05:18:59.806Z,1013.21
2024-03-05T05:20:02.109Z,1013.19
2024-03-05T05:21:01.051Z,1013.16
2024-03-05T05:22:13.858Z,1013.22
2024-03-05T05:22:59.776Z,1013.28
2024-03-05T05:24:00.500Z,1013.29
2024-03-05T05:24:59.210Z,1013.32
2024-03-05T05:26:00.045Z,1013.34
2024-03-05T05:26:58.739Z,1013.33
2024-03-05T05:28:00.951Z,1013.3
2024-03-05T05:28:59.702Z,1013.35
2024-03-05T05:30:08.647Z,1013.32
2024-03-05T05:31:01.167Z,1013.34
2024-03-05T05:31:59.737Z,1013.37
2024-03-05T05:33:02.613Z,1013.35
2024-03-05T05:34:00.259Z,1013.35
2024-03-05T05:34:59.208Z,1013.36
2024-03-05T05:35:59.909Z,1013.35
2024-03-05T05:37:00.963Z,1013.35
2024-03-05T05:37:59.782Z,1013.36
2024-03-05T05:39:00.547Z,1013.43
2024-03-05T05:39:59.222Z,1013.4
2024-03-05T05:40:59.990Z,1013.41
2024-03-05T05:41:58.722Z,1013.43
2024-03-05T05:43:00.995Z,1013.41
2024-03-05T05:43:59.887Z,1013.46
2024-03-05T05:44:58.661Z,1013.46
2024-03-05T05:46:00.401Z,1013.42
2024-03-05T05:46:59.330Z,1013.4
2024-03-05T05:48:00.157Z,1013.48
2024-03-05T05:48:58.974Z,1013.46
2024-03-05T05:49:59.799Z,1013.46
2024-03-05T05:51:01.042Z,1013.51
2024-03-05T05:51:59.800Z,1013.53
2024-03-05T05:53:01.478Z,1013.54
2024-03-05T05:54:00.400Z,1013.56
2024-03-05T05:54:59.036Z,1013.53
2024-03-05T05:55:59.785Z,1013.57
2024-03-05T05:57:00.865Z,1013.55
2024-03-05T05:57:59.769Z,1013.53
2024-03-05T05:59:00.652Z,1013.52
2024-03-05T05:59:59.412Z,1013.55
2024-03-05T06:01:00.093Z,1013.59
2024-03-05T06:01:59.136Z,1013.57
2024-03-05T06:03:00.205Z,1013.57
2024-03-05T06:03:58.961Z,1013.59
2024-03-05T06:04:59.716Z,1013.57
2024-03-05T06:06:00.957Z,1013.61
2024-03-05T06:07:03.783Z,1013.63
2024-03-05T06:07:59.771Z,1013.66
2024-03-05T06:09:00.500Z,1013.62
2024-03-05T06:09:59.403Z,1013.63
2024-03-05T06:11:00.252Z,1013.63
2024-03-05T06:11:59.021Z,1013.63
2024-03-05T06:12:59.859Z,1013.65
2024-03-05T06:13:58.774Z,1013.66
2024-03-05T06:15:00.982Z,1013.58
2024-03-05T06:15:59.762Z,1013.6
2024-03-05T06:17:01.084Z,1013.62
2024-03-05T06:17:59.861Z,1013.6
2024-03-05T06:19:00.593Z,1013.59
2024-03-05T06:20:00.108Z,1013.61
2024-03-05T06:20:58.963Z,1013.65
2024-03-05T06:21:59.701Z,1013.58
2024-03-05T06:23:01.087Z,1013.6
2024-03-05T06:23:59.826Z,1013.6
2024-03-05T06:25:00.969Z,1013.64
2024-03-05T06:26:00.379Z,1013.59
2024-03-05T06:26:59.659Z,1013.62
2024-03-05T06:28:00.746Z,1013.61
2024-03-05T06:28:59.483Z,1013.62
2024-03-05T06:30:00.244Z,1013.65
2024-03-05T06:30:59.048Z,1013.65
2024-03-05T06:31:59.748Z,1013.68
2024-03-05T06:33:01.099Z,1013.69
2024-03-05T06:33:59.848Z,1013.7
2024-03-05T06:35:01.395Z,1013.73
2024-03-05T06:36:00.309Z,1013.76
2024-03-05T06:36:58.981Z,1013.74
2024-03-05T06:38:02.791Z,1013.71
2024-03-05T06:38:59.701Z,1013.74
2024-03-05T06:40:01.056Z,1013.71
2024-03-05T06:40:59.859Z,1013.76
2024-03-05T06:42:00.971Z,1013.71
2024-03-05T06:43:05.949Z,1013.68
2024-03-05T06:43:59.707Z,1013.69
2024-03-05T06:45:01.107Z,1013.73
2024-03-05T06:45:59.857Z,1013.75
2024-03-05T06:47:01.114Z,1013.75
2024-03-05T06:48:12.343Z,1013.73
2024-03-05T06:48:59.861Z,1013.72
2024-03-05T06:50:01.080Z,1013.74
2024-03-05T06:50:59.789Z,1013.74
2024-03-05T06:52:01.017Z,1013.7
2024-03-05T06:53:10.236Z,1013.78
2024-03-05T06:54:00.615Z,1013.8
2024-03-05T06:54:59.404Z,1013.83
2024-03-05T06:56:00.188Z,1013.81
2024-03-05T06:56:58.863Z,1013.8
2024-03-05T06:58:13.600Z,1013.82
2024-03-05T06:59:00.762Z,1013.84
2024-03-05T06:59:59.555Z,1013.86
2024-03-05T07:01:00.267Z,1013.86
2024-03-05T07:01:59.318Z,1013.94
2024-03-05T07:03:14.666Z,1013.89
2024-03-05T07:04:00.136Z,1013.93
2024-03-05T07:04:58.853Z,1013.9
2024-03-05T07:06:01.120Z,1013.88
2024-03-05T07:06:59.769Z,1013.92
2024-03-05T07:08:01.088Z,1013.86
2024-03-05T07:08:59.890Z,1013.89
2024-03-05T07:10:01.028Z,1013.91
2024-03-05T07:11:00.006Z,1013.95
2024-03-05T07:11:58.790Z,1013.97
2024-03-05T07:13:01.079Z,1013.94
2024-03-05T07:13:59.923Z,1014
2024-03-05T07:14:58.701Z,1014
2024-03-05T07:16:00.968Z,1013.98
2024-03-05T07:16:59.795Z,1013.98
2024-03-05T07:18:00.977Z,1014
2024-03-05T07:18:59.784Z,1013.97
2024-03-05T07:20:01.458Z,1013.97
2024-03-05T07:21:00.322Z,1013.98
2024-03-05T07:21:59.063Z,1014.01
2024-03-05T07:22:59.912Z,1014
2024-03-05T07:23:58.758Z,1013.97
2024-03-05T07:25:01.023Z,1013.97
2024-03-05T07:26:01.179Z,1013.96
2024-03-05T07:27:04.899Z,1013.98
2024-03-05T07:27:59.841Z,1013.93
2024-03-05T07:29:00.877Z,1013.95
2024-03-05T07:29:59.950Z,1013.94
2024-03-05T07:30:58.694Z,1013.93
2024-03-05T07:32:01.233Z,1013.95
2024-03-05T07:33:00.007Z,1013.91
2024-03-05T07:33:58.731Z,1013.95
2024-03-05T07:35:01.029Z,1013.93
2024-03-05T07:35:59.754Z,1013.93
2024-03-05T07:37:01.001Z,1013.96
2024-03-05T07:37:59.803Z,1013.97
2024-03-05T07:39:00.704Z,1013.97
2024-03-05T07:39:59.481Z,1013.96
2024-03-05T07:41:00.325Z,1014.02
2024-03-05T07:41:59.090Z,1014.01
2024-03-05T07:42:59.801Z,1014.01
2024-03-05T07:44:00.838Z,1014
2024-03-05T07:44:59.733Z,1014.02
2024-03-05T07:46:01.080Z,1014
2024-03-05T07:47:00.258Z,1014.03
2024-03-05T07:47:59.041Z,1014.02
2024-03-05T07:48:59.824Z,1014.05
2024-03-05T07:50:01.073Z,1014.02
2024-03-05T07:50:59.801Z,1014.07
2024-03-05T07:52:00.994Z,1014.06
2024-03-05T07:52:59.702Z,1014.08
2024-03-05T07:54:00.759Z,1014.08
2024-03-05T07:54:59.484Z,1014.13
2024-03-05T07:56:00.351Z,1014.1
2024-03-05T07:56:59.076Z,1014.11
2024-03-05T07:57:59.892Z,1014.09
2024-03-05T07:59:00.624Z,1014.08
2024-03-05T07:59:59.410Z,1014.07
2024-03-05T08:01:00.095Z,1014.07
2024-03-05T08:01:58.795Z,1014.05
2024-03-05T08:03:00.962Z,1014.06
2024-03-05T08:03:59.638Z,1014.08
2024-03-05T08:05:01.117Z,1014.11
2024-03-05T08:05:59.851Z,1014.03
2024-03-05T08:07:01.076Z,1014.03
2024-03-05T08:07:59.821Z,1014.05
2024-03-05T08:09:00.571Z,1014.05
2024-03-05T08:09:59.230Z,1014.05
2024-03-05T08:11:00.029Z,1014
2024-03-05T08:11:58.904Z,1014.02
2024-03-05T08:13:01.040Z,1014.06
2024-03-05T08:14:00.181Z,1014.01
2024-03-05T08:14:58.986Z,1014
2024-03-05T08:15:59.706Z,1014.02
2024-03-05T08:17:01.446Z,1014.02
2024-03-05T08:18:00.137Z,1014.03
2024-03-05T08:19:03.258Z,1014.03
2024-03-05T08:19:59.987Z,1014.05
2024-03-05T08:20:58.823Z,1014.09
2024-03-05T08:22:00.569Z,1014.02
2024-03-05T08:22:59.735Z,1014.01
2024-03-05T08:24:05.783Z,1014.06
2024-03-05T08:25:01.385Z,1014.03
2024-03-05T08:26:00.122Z,1014.04
2024-03-05T08:26:58.844Z,1014.06
2024-03-05T08:28:01.063Z,1014.05
2024-03-05T08:29:08.170Z,1014.02
2024-03-05T08:30:01.029Z,1014.04
2024-03-05T08:30:59.694Z,1014.07
2024-03-05T08:32:00.992Z,1014.08
2024-03-05T08:32:59.745Z,1014.06
2024-03-05T08:34:09.968Z,1014.09
2024-03-05T08:35:00.555Z,1014.08
2024-03-05T08:35:59.355Z,1014.08
2024-03-05T08:37:00.136Z,1014.11
2024-03-05T08:37:59.011Z,1014.1
2024-03-05T08:39:11.653Z,1014.16
2024-03-05T08:39:59.769Z,1014.19
2024-03-05T08:41:00.988Z,1014.17
2024-03-05T08:41:59.682Z,1014.16
2024-03-05T08:43:00.407Z,1014.12
2024-03-05T08:44:14.276Z,1014.1
2024-03-05T08:45:00.128Z,1014.13
2024-03-05T08:45:58.874Z,1014.15
2024-03-05T08:47:01.550Z,1014.2
2024-03-05T08:48:00.572Z,1014.14
2024-03-05T08:48:59.332Z,1014.21
2024-03-05T08:50:00.216Z,1014.15
2024-03-05T08:50:59.158Z,1014.18
2024-03-05T08:51:59.962Z,1014.2
2024-03-05T08:52:58.775Z,1014.22
2024-03-05T08:54:00.566Z,1014.23
2024-03-05T08:54:59.253Z,1014.26
2024-03-05T08:56:00.019Z,1014.23
2024-03-05T08:56:58.754Z,1014.19
2024-03-05T08:58:00.532Z,1014.19
2024-03-05T08:58:59.219Z,1014.23
2024-03-05T09:00:00.910Z,1014.14
2024-03-05T09:01:00.184Z,1014.13
2024-03-05T09:01:58.898Z,1014.15
2024-03-05T09:03:01.041Z,1014.15
2024-03-05T09:03:59.712Z,1014.17
2024-03-05T09:05:01.180Z,1014.18
2024-03-05T09:06:00.053Z,1014.14
2024-03-05T09:06:58.771Z,1014.17
2024-03-05T09:08:01.085Z,1014.2
2024-03-05T09:08:59.840Z,1014.18
2024-03-05T09:10:01.009Z,1014.17
2024-03-05T09:10:59.814Z,1014.19
2024-03-05T09:12:01.052Z,1014.16
2024-03-05T09:12:59.771Z,1014.17
2024-03-05T09:14:00.616Z,1014.17
2024-03-05T09:14:59.346Z,1014.19
2024-03-05T09:16:00.094Z,1014.24
2024-03-05T09:16:58.975Z,1014.17
2024-03-05T09:17:59.691Z,1014.2
2024-03-05T09:19:00.417Z,1014.2
2024-03-05T09:19:59.124Z,1014.21
2024-03-05T09:20:59.831Z,1014.19
2024-03-05T09:22:01.128Z,1014.18
2024-03-05T09:22:59.870Z,1014.23
2024-03-05T09:24:00.589Z,1014.27
2024-03-05T09:24:59.238Z,1014.28
2024-03-05T09:26:00.112Z,1014.26
2024-03-05T09:26:58.929Z,1014.27
2024-03-05T09:27:59.926Z,1014.3
2024-03-05T09:28:58.685Z,1014.25
2024-03-05T09:30:01.148Z,1014.26
2024-03-05T09:30:59.869Z,1014.33
2024-03-05T09:32:01.100Z,1014.3
2024-03-05T09:32:59.821Z,1014.26
2024-03-05T09:34:00.557Z,1014.28
2024-03-05T09:34:59.681Z,1014.32
2024-03-05T09:36:01.063Z,1014.31
2024-03-05T09:37:00.038Z,1014.23
2024-03-05T09:37:59.047Z,1014.27
2024-03-05T09:39:00.196Z,1014.31
2024-03-05T09:39:58.867Z,1014.31
2024-03-05T09:41:01.179Z,1014.33
2024-03-05T09:41:59.940Z,1014.27
2024-03-05T09:42:58.733Z,1014.22
2024-03-05T09:44:00.555Z,1014.29
2024-03-05T09:44:59.365Z,1014.34
2024-03-05T09:46:00.141Z,1014.33
2024-03-05T09:46:58.927Z,1014.34
2024-03-05T09:47:59.880Z,1014.36
2024-03-05T09:49:07.661Z,1014.29
2024-03-05T09:49:59.850Z,1014.32
2024-03-05T09:51:01.062Z,1014.34
2024-03-05T09:51:59.833Z,1014.3
2024-03-05T09:53:00.623Z,1014.34
2024-03-05T09:53:59.310Z,1014.31
2024-03-05T09:55:00.052Z,1014.33
2024-03-05T09:55:58.856Z,1014.32
2024-03-05T09:57:01.368Z,1014.3
2024-03-05T09:57:59.638Z,1014.31
2024-03-05T09:59:00.453Z,1014.27
2024-03-05T09:59:59.140Z,1014.3
2024-03-05T10:00:59.858Z,1014.31
2024-03-05T10:02:01.309Z,1014.35
2024-03-05T10:03:00.098Z,1014.31
2024-03-05T10:03:58.962Z,1014.3
2024-03-05T10:05:00.694Z,1014.37
2024-03-05T10:05:59.654Z,1014.31
2024-03-05T10:07:00.511Z,1014.33
2024-03-05T10:07:59.328Z,1014.4
2024-03-05T10:09:00.143Z,1014.37
2024-03-05T10:10:03.092Z,1014.36
2024-03-05T10:10:59.886Z,1014.34
2024-03-05T10:12:01.020Z,1014.32
2024-03-05T10:12:59.837Z,1014.36
2024-03-05T10:14:01.025Z,1014.34
2024-03-05T10:15:04.949Z,1014.34
2024-03-05T10:15:59.678Z,1014.38
2024-03-05T10:17:00.478Z,1014.39
2024-03-05T10:17:59.373Z,1014.39
2024-03-05T10:19:00.083Z,1014.37
2024-03-05T10:20:08.029Z,1014.39
2024-03-05T10:20:59.791Z,1014.4
2024-03-05T10:22:01.072Z,1014.35
2024-03-05T10:23:00.525Z,1014.4
2024-03-05T10:23:59.507Z,1014.35
2024-03-05T10:25:09.211Z,1014.42
2024-03-05T10:26:00.132Z,1014.39
2024-03-05T10:26:58.903Z,1014.37
2024-03-05T10:28:01.349Z,1014.39
2024-03-05T10:29:00.090Z,1014.39
2024-03-05T10:30:12.144Z,1014.43
2024-03-05T10:30:59.904Z,1014.38
2024-03-05T10:32:01.149Z,1014.4
2024-03-05T10:32:59.653Z,1014.3
2024-03-05T10:34:00.408Z,1014.35
2024-03-05T10:35:14.662Z,1014.4
2024-03-05T10:36:00.106Z,1014.34
2024-03-05T10:36:58.776Z,1014.35
2024-03-05T10:38:01.239Z,1014.38
2024-03-05T10:39:00.134Z,1014.4
2024-03-05T10:39:58.905Z,1014.38
2024-03-05T10:41:01.176Z,1014.43
2024-03-05T10:41:59.719Z,1014.42
2024-03-05T10:43:00.984Z,1014.41
2024-03-05T10:43:59.714Z,1014.37
2024-03-05T10:45:00.978Z,1014.41
2024-03-05T10:45:59.754Z,1014.41
2024-03-05T10:47:01.079Z,1014.42
2024-03-05T10:48:00.330Z,1014.37
2024-03-05T10:48:59.050Z,1014.44
2024-03-05T10:49:59.893Z,1014.39
2024-03-05T10:50:58.644Z,1014.43
2024-03-05T10:52:00.418Z,1014.41
2024-03-05T10:52:59.318Z,1014.45
2024-03-05T10:54:00.152Z,1014.48
2024-03-05T10:54:59.237Z,1014.45
2024-03-05T10:56:00.248Z,1014.44
2024-03-05T10:56:59.083Z,1014.5
2024-03-05T10:57:59.838Z,1014.43
2024-03-05T10:59:01.025Z,1014.51
2024-03-05T10:59:59.731Z,1014.51
2024-03-05T11:01:01.001Z,1014.5
2024-03-05T11:01:59.940Z,1014.5
2024-03-05T11:02:58.735Z,1014.51
2024-03-05T11:04:00.473Z,1014.51
2024-03-05T11:04:59.142Z,1014.51
2024-03-05T11:05:59.905Z,1014.53
2024-03-05T11:07:01.038Z,1014.53
2024-03-05T11:07:59.918Z,1014.62
2024-03-05T11:08:58.679Z,1014.62
2024-03-05T11:10:01.000Z,1014.64
2024-03-05T11:10:59.764Z,1014.56
2024-03-05T11:12:01.114Z,1014.58
2024-03-05T11:12:59.810Z,1014.61
2024-03-05T11:14:00.585Z,1014.6
2024-03-05T11:14:59.321Z,1014.58
2024-03-05T11:16:00.042Z,1014.63
2024-03-05T11:16:58.843Z,1014.65
2024-03-05T11:18:01.005Z,1014.62
2024-03-05T11:18:59.750Z,1014.64
2024-03-05T11:20:01.194Z,1014.61
2024-03-05T11:20:59.986Z,1014.63
2024-03-05T11:21:58.761Z,1014.65
2024-03-05T11:23:01.138Z,1014.6
2024-03-05T11:23:59.911Z,1014.59
2024-03-05T11:25:01.070Z,1014.54
2024-03-05T11:25:59.928Z,1014.59
2024-03-05T11:26:58.673Z,1014.6
2024-03-05T11:28:00.565Z,1014.57
2024-03-05T11:28:59.304Z,1014.56
2024-03-05T11:29:59.993Z,1014.58
2024-03-05T11:30:58.655Z,1014.54
2024-03-05T11:32:00.995Z,1014.62
2024-03-05T11:32:59.902Z,1014.65
2024-03-05T11:33:58.627Z,1014.59
2024-03-05T11:35:00.468Z,1014.54
2024-03-05T11:35:59.260Z,1014.59
2024-03-05T11:36:59.972Z,1014.57
2024-03-05T11:37:58.735Z,1014.56
2024-03-05T11:39:00.515Z,1014.57
2024-03-05T11:39:59.178Z,1014.56
2024-03-05T11:41:00.078Z,1014.55
2024-03-05T11:41:58.993Z,1014.53
2024-03-05T11:42:59.714Z,1014.53
2024-03-05T11:44:00.539Z,1014.49
2024-03-05T11:44:59.276Z,1014.51
2024-03-05T11:46:00.061Z,1014.46
2024-03-05T11:46:58.861Z,1014.53
2024-03-05T11:48:01.748Z,1014.52
2024-03-05T11:49:02.025Z,1014.44
2024-03-05T11:50:00.493Z,1014.47
2024-03-05T11:50:59.772Z,1014.46
2024-03-05T11:52:00.994Z,1014.57
2024-03-05T11:52:59.828Z,1014.49
2024-03-05T11:54:01.136Z,1014.52
2024-03-05T11:54:59.887Z,1014.54
2024-03-05T11:56:03.470Z,1014.47
2024-03-05T11:57:01.024Z,1014.49
2024-03-05T11:57:59.706Z,1014.52
2024-03-05T11:59:02.215Z,1014.48
2024-03-05T12:00:01.043Z,1014.46
2024-03-05T12:01:05.559Z,1014.53
2024-03-05T12:01:59.790Z,1014.48
2024-03-05T12:03:00.713Z,1014.53
2024-03-05T12:03:59.433Z,1014.54
2024-03-05T12:05:00.276Z,1014.54
2024-03-05T12:06:09.164Z,1014.57
2024-03-05T12:07:00.105Z,1014.59
2024-03-05T12:07:58.993Z,1014.6
2024-03-05T12:08:59.766Z,1014.59